ハルビン の空港の天気 - METARとTAF

ハルビン太平国際空港 ( ZYHB / HRB ) - 中国 黒竜江省ハルビン市
飛行場実況気象(Metar)
観測時間05/27 07:00 CST (05/26 23:00 UTC)
風向・風速不定 1m/s
視程10km以上
天気現象
なし
気温16℃
湿度68%
気圧1005hPa
METARZYHB 262300Z VRB01MPS CAVOK 16/10 Q1005 NOSIG
過去の天気等 Google飛行場航空写真 Wunderground天気予報

過去48時間のMETAR

飛行場予報(TAF)
発表時間: 5/27 05:01 CST (5/26 21:01 UTC)
予報対象時間: 27日8時 CST ~ 28日8時 CST
風向・風速北西 3m/s
視程6000m
全天の4割程度の雲 雲底高度 910m
TAF ZYHB 262101Z 2700/2724 31003MPS 6000 SCT030 TX25/2706Z TN11/2720Z